Reeds Spring, MO (65737)

2:50 AM CST on January 21, 2017 (GMT -0600)
Branson West Weather | | Change Station

Elev 1368 ft 36.70 °N, 93.37 °W | Updated 5 seconds ago

Clear
Clear
53.8 °F
Feels Like 53.8 °F
N
3.5
Wind Variable Wind from SSW
Gusts 3.5 mph

Today
High -- | Low -- °F
--% Chance of Precip.
Yesterday
High -- | Low -- °F
Precip. -- in
Pressure 29.56 in
Visibility 10.0 miles
Clouds Clear
Dew Point 40 °F
Humidity 59%
Rainfall 0.00 in
Snow Depth Not available.
7:22 AM 5:27 PM
Last Quarter, 37% visible
METAR KFWB 210835Z AUTO 21004KT 10SM CLR 12/04 A2956 RMK AO2
Pressure 29.56 in
Visibility 10.0 miles
Clouds Clear
Dew Point 40 °F
Humidity 59%
Rainfall 0.00 in
Snow Depth Not available.
7:22 AM 5:27 PM
Last Quarter, 37% visible
METAR KFWB 210835Z AUTO 21004KT 10SM CLR 12/04 A2956 RMK AO2

Get Your Daily Forecast Email!

Thanks for signing up!

Be on the lookout for a verification email in your inbox.

You'll start receiving the daily forecast at 8 AM.

×

10-Day Weather Forecast

Almanac

Astronomy

Jan. 21, 2017 Rise Set
Actual Time
Civil Twilight
Nautical Twilight
Astronomical Twilight
Moon
Length of Visible Light
Length of Day
Tomorrow will be .
, % of the Moon is Illuminated

Today's Extremes

State Highs State Lows

Community

WunderPhotos

Upload Photos

1,962,540 photos uploaded!

WunderBlog® & News

Nearby

Air Quality

  Air Quality AQ Index Pollutant
Not available.

Snow Depth

Station Depth Elevation

Earthquake Activity

City Distance Mag. Time & Date
Minimum magnitude displayed is 2.5.

Coastal Water Temperatures

Place Temperature

Stations

Nearby Weather Stations

Station Location Temp. Windchill Dew Point Humidity Wind Precip. Elev Updated Type
                   

Watches & Warnings

There are currently no watches in effect.